createdAt,value
2023-05-02T00:00:06.457Z,44.18
2023-05-02T00:01:06.519Z,44.14
2023-05-02T00:02:06.553Z,44.17
2023-05-02T00:03:06.692Z,44.17
2023-05-02T00:04:06.732Z,44.21
2023-05-02T00:05:06.687Z,44.19
2023-05-02T00:06:06.763Z,44.17
2023-05-02T00:07:06.784Z,44.18
2023-05-02T00:08:06.824Z,44.18
2023-05-02T00:09:06.861Z,44.19
2023-05-02T00:10:06.909Z,44.18
2023-05-02T00:11:06.946Z,44.20
2023-05-02T00:12:06.991Z,44.19
2023-05-02T00:13:07.093Z,44.17
2023-05-02T00:14:07.082Z,44.18
2023-05-02T00:15:07.119Z,44.19
2023-05-02T00:16:07.155Z,44.21
2023-05-02T00:17:07.293Z,44.16
2023-05-02T00:18:07.321Z,44.20
2023-05-02T00:19:07.281Z,44.22
2023-05-02T00:20:07.328Z,44.21
2023-05-02T00:21:07.362Z,44.20
2023-05-02T00:22:07.422Z,44.19
2023-05-02T00:23:07.437Z,44.19
2023-05-02T00:24:07.565Z,44.22
2023-05-02T00:25:07.507Z,44.22
2023-05-02T00:26:07.550Z,44.21
2023-05-02T00:27:07.577Z,44.22
2023-05-02T00:28:07.627Z,44.23
2023-05-02T00:29:07.668Z,44.24
2023-05-02T00:30:07.700Z,44.21
2023-05-02T00:31:07.790Z,44.24
2023-05-02T00:32:07.807Z,44.24
2023-05-02T00:33:07.899Z,44.24
2023-05-02T00:34:07.870Z,44.24
2023-05-02T00:35:07.933Z,44.26
2023-05-02T00:36:07.957Z,44.25
2023-05-02T00:37:07.998Z,44.26
2023-05-02T00:38:08.053Z,44.25
2023-05-02T00:39:08.107Z,44.26
2023-05-02T00:40:08.224Z,44.24
2023-05-02T00:41:08.187Z,44.24
2023-05-02T00:42:08.225Z,44.26
2023-05-02T00:43:08.271Z,44.25
2023-05-02T00:44:08.311Z,44.29
2023-05-02T00:45:08.356Z,44.30
2023-05-02T00:46:08.414Z,44.26
2023-05-02T00:47:08.426Z,44.29
2023-05-02T00:48:08.565Z,44.29
2023-05-02T00:49:08.511Z,44.27
2023-05-02T00:50:08.548Z,44.27
2023-05-02T00:51:08.670Z,44.27
2023-05-02T00:52:08.727Z,44.29
2023-05-02T00:53:08.695Z,44.30
2023-05-02T00:54:08.744Z,44.28
2023-05-02T00:55:08.802Z,44.29
2023-05-02T00:56:08.841Z,44.29
2023-05-02T00:57:08.899Z,44.29
2023-05-02T00:58:08.942Z,44.29
2023-05-02T00:59:08.987Z,44.28
2023-05-02T01:00:09.033Z,44.28
2023-05-02T01:01:09.106Z,44.28
2023-05-02T01:02:09.248Z,44.31
2023-05-02T01:03:09.236Z,44.29
2023-05-02T01:04:09.311Z,44.30
2023-05-02T01:05:09.253Z,44.29
2023-05-02T01:06:09.318Z,44.29
2023-05-02T01:07:09.332Z,44.29
2023-05-02T01:08:09.387Z,44.30
2023-05-02T01:09:09.399Z,44.33
2023-05-02T01:10:09.408Z,44.31
2023-05-02T01:11:09.430Z,44.30
2023-05-02T01:12:09.431Z,44.31
2023-05-02T01:13:09.444Z,44.30
2023-05-02T01:14:09.457Z,44.31
2023-05-02T01:15:09.461Z,44.29
2023-05-02T01:16:09.550Z,44.28
2023-05-02T01:17:09.493Z,44.30
2023-05-02T01:18:09.518Z,44.30
2023-05-02T01:19:09.544Z,44.31
2023-05-02T01:20:09.530Z,44.33
2023-05-02T01:21:09.536Z,44.33
2023-05-02T01:22:09.539Z,44.34
2023-05-02T01:23:09.590Z,44.38
2023-05-02T01:24:09.632Z,44.39
2023-05-02T01:25:09.698Z,44.35
2023-05-02T01:26:09.751Z,44.37
2023-05-02T01:27:09.802Z,44.37
2023-05-02T01:28:09.847Z,44.38
2023-05-02T01:29:09.898Z,44.37
2023-05-02T01:30:09.930Z,44.33
2023-05-02T01:31:09.985Z,44.33
2023-05-02T01:32:10.030Z,44.35
2023-05-02T01:33:10.061Z,44.35
2023-05-02T01:34:10.109Z,44.32
2023-05-02T01:35:10.146Z,44.35
2023-05-02T01:36:10.182Z,44.39
2023-05-02T01:37:10.215Z,44.36
2023-05-02T01:38:10.248Z,44.37
2023-05-02T01:39:10.270Z,44.40
2023-05-02T01:40:10.326Z,44.39
2023-05-02T01:41:10.350Z,44.37
2023-05-02T01:42:10.366Z,44.38
2023-05-02T01:43:10.407Z,44.36
2023-05-02T01:44:10.446Z,44.38
2023-05-02T01:45:10.474Z,44.41
2023-05-02T01:46:10.500Z,44.41
2023-05-02T01:47:10.605Z,44.39
2023-05-02T01:48:10.645Z,44.39
2023-05-02T01:49:10.587Z,44.37
2023-05-02T01:50:10.610Z,44.40
2023-05-02T01:51:10.617Z,44.41
2023-05-02T01:52:10.627Z,44.41
2023-05-02T01:53:10.657Z,44.40
2023-05-02T01:54:10.680Z,44.42
2023-05-02T01:55:10.756Z,44.42
2023-05-02T01:56:10.753Z,44.45
2023-05-02T01:57:10.758Z,44.46
2023-05-02T01:58:10.780Z,44.46
2023-05-02T01:59:10.799Z,44.46
2023-05-02T02:00:10.809Z,44.44
2023-05-02T02:01:10.863Z,44.46
2023-05-02T02:02:10.848Z,44.45
2023-05-02T02:03:10.903Z,44.46
2023-05-02T02:04:10.941Z,44.49
2023-05-02T02:05:10.908Z,44.47
2023-05-02T02:06:10.982Z,44.48
2023-05-02T02:07:10.941Z,44.50
2023-05-02T02:08:10.958Z,44.50
2023-05-02T02:09:10.979Z,44.50
2023-05-02T02:10:10.996Z,44.49
2023-05-02T02:11:11.015Z,44.50
2023-05-02T02:12:11.048Z,44.50
2023-05-02T02:13:11.054Z,44.52
2023-05-02T02:14:11.079Z,44.53
2023-05-02T02:15:11.086Z,44.53
2023-05-02T02:16:11.116Z,44.55
2023-05-02T02:17:11.161Z,44.51
2023-05-02T02:18:11.195Z,44.49
2023-05-02T02:19:11.161Z,44.50
2023-05-02T02:20:11.192Z,44.52
2023-05-02T02:21:11.202Z,44.52
2023-05-02T02:22:11.215Z,44.51
2023-05-02T02:23:11.228Z,44.50
2023-05-02T02:24:11.247Z,44.53
2023-05-02T02:25:11.259Z,44.54
2023-05-02T02:26:11.288Z,44.54
2023-05-02T02:27:11.292Z,44.53
2023-05-02T02:28:11.318Z,44.54
2023-05-02T02:29:11.316Z,44.53
2023-05-02T02:30:11.349Z,44.50
2023-05-02T02:31:11.430Z,44.52
2023-05-02T02:32:11.390Z,44.53
2023-05-02T02:33:11.434Z,44.52
2023-05-02T02:34:11.436Z,44.53
2023-05-02T02:35:11.479Z,44.56
2023-05-02T02:36:11.464Z,44.57
2023-05-02T02:37:11.487Z,44.59
2023-05-02T02:38:11.537Z,44.58
2023-05-02T02:39:11.560Z,44.59
2023-05-02T02:40:11.567Z,44.56
2023-05-02T02:41:11.580Z,44.58
2023-05-02T02:42:11.612Z,44.59
2023-05-02T02:43:11.622Z,44.58
2023-05-02T02:44:13.486Z,44.59
2023-05-02T02:45:11.686Z,44.61
2023-05-02T02:46:11.685Z,44.59
2023-05-02T02:47:11.696Z,44.61
2023-05-02T02:48:11.721Z,44.58
2023-05-02T02:49:11.719Z,44.58
2023-05-02T02:50:11.767Z,44.60
2023-05-02T02:51:11.762Z,44.60
2023-05-02T02:52:11.805Z,44.60
2023-05-02T02:53:11.789Z,44.59
2023-05-02T02:54:25.417Z,44.59
2023-05-02T02:55:12.806Z,44.61
2023-05-02T02:56:11.806Z,44.60
2023-05-02T02:57:11.801Z,44.62
2023-05-02T02:58:11.802Z,44.59
2023-05-02T02:59:11.799Z,44.61
2023-05-02T03:00:11.823Z,44.64
2023-05-02T03:01:11.830Z,44.64
2023-05-02T03:02:11.821Z,44.64
2023-05-02T03:03:11.920Z,44.64
2023-05-02T03:04:11.932Z,44.64
2023-05-02T03:05:11.854Z,44.65
2023-05-02T03:06:11.855Z,44.64
2023-05-02T03:07:11.838Z,44.62
2023-05-02T03:08:11.831Z,44.69
2023-05-02T03:09:11.839Z,44.65
2023-05-02T03:10:11.855Z,44.63
2023-05-02T03:11:11.863Z,44.62
2023-05-02T03:12:11.864Z,44.65
2023-05-02T03:13:11.874Z,44.63
2023-05-02T03:14:11.873Z,44.62
2023-05-02T03:15:11.868Z,44.63
2023-05-02T03:16:11.916Z,44.63
2023-05-02T03:17:11.887Z,44.65
2023-05-02T03:18:11.930Z,44.63
2023-05-02T03:19:11.887Z,44.67
2023-05-02T03:20:11.887Z,44.62
2023-05-02T03:21:11.877Z,44.62
2023-05-02T03:22:11.889Z,44.67
2023-05-02T03:23:11.886Z,44.70
2023-05-02T03:24:11.884Z,44.66
2023-05-02T03:25:11.940Z,44.68
2023-05-02T03:26:11.934Z,44.69
2023-05-02T03:27:11.944Z,44.68
2023-05-02T03:28:11.956Z,44.70
2023-05-02T03:29:11.985Z,44.71
2023-05-02T03:30:12.011Z,44.71
2023-05-02T03:31:12.097Z,44.70
2023-05-02T03:32:12.088Z,44.71
2023-05-02T03:33:12.119Z,44.71
2023-05-02T03:34:12.124Z,44.70
2023-05-02T03:35:12.134Z,44.70
2023-05-02T03:36:13.107Z,44.71
2023-05-02T03:37:12.174Z,44.72
2023-05-02T03:38:12.219Z,44.70
2023-05-02T03:39:12.232Z,44.70
2023-05-02T03:40:12.246Z,44.72
2023-05-02T03:41:12.264Z,44.73
2023-05-02T03:42:12.293Z,44.72
2023-05-02T03:43:13.104Z,44.71
2023-05-02T03:44:12.320Z,44.72
2023-05-02T03:45:12.343Z,44.72
2023-05-02T03:46:12.396Z,44.73
2023-05-02T03:47:12.521Z,44.72
2023-05-02T03:48:12.442Z,44.73
2023-05-02T03:49:12.428Z,44.75
2023-05-02T03:50:12.442Z,44.73
2023-05-02T03:51:12.451Z,44.73
2023-05-02T03:52:12.493Z,44.76
2023-05-02T03:53:12.505Z,44.75
2023-05-02T03:54:12.529Z,44.76
2023-05-02T03:55:12.556Z,44.73
2023-05-02T03:56:12.571Z,44.76
2023-05-02T03:57:12.575Z,44.79
2023-05-02T03:58:12.601Z,44.79
2023-05-02T03:59:12.602Z,44.78
2023-05-02T04:00:12.621Z,44.76
2023-05-02T04:01:12.656Z,44.79
2023-05-02T04:02:12.717Z,44.80
2023-05-02T04:03:12.693Z,44.76
2023-05-02T04:04:12.717Z,44.78
2023-05-02T04:05:12.724Z,44.79
2023-05-02T04:06:12.813Z,44.80
2023-05-02T04:07:12.770Z,44.76
2023-05-02T04:08:12.797Z,44.78
2023-05-02T04:09:12.820Z,44.79
2023-05-02T04:10:12.844Z,44.76
2023-05-02T04:11:12.898Z,44.77
2023-05-02T04:12:12.882Z,44.76
2023-05-02T04:13:12.905Z,44.81
2023-05-02T04:14:12.962Z,44.80
2023-05-02T04:15:12.966Z,44.80
2023-05-02T04:16:13.068Z,44.82
2023-05-02T04:17:13.066Z,44.81
2023-05-02T04:18:13.085Z,44.81
2023-05-02T04:19:13.045Z,44.80
2023-05-02T04:20:13.059Z,44.76
2023-05-02T04:21:13.095Z,44.80
2023-05-02T04:22:13.101Z,44.79
2023-05-02T04:23:13.119Z,44.80
2023-05-02T04:24:13.148Z,44.82
2023-05-02T04:25:13.173Z,44.83
2023-05-02T04:26:13.190Z,44.81
2023-05-02T04:27:15.292Z,44.82
2023-05-02T04:28:13.246Z,44.83
2023-05-02T04:29:13.266Z,44.83
2023-05-02T04:30:13.285Z,44.82
2023-05-02T04:31:13.380Z,44.82
2023-05-02T04:32:13.333Z,44.81
2023-05-02T04:33:13.432Z,44.83
2023-05-02T04:34:13.379Z,44.84
2023-05-02T04:35:13.406Z,44.86
2023-05-02T04:36:13.426Z,44.86
2023-05-02T04:37:13.447Z,44.84
2023-05-02T04:38:13.479Z,44.86
2023-05-02T04:39:13.515Z,44.85
2023-05-02T04:40:14.124Z,44.83
2023-05-02T04:41:13.563Z,44.83
2023-05-02T04:42:13.591Z,44.87
2023-05-02T04:43:13.598Z,44.85
2023-05-02T04:44:13.629Z,44.84
2023-05-02T04:45:13.655Z,44.86
2023-05-02T04:46:13.732Z,44.85
2023-05-02T04:47:13.710Z,44.87
2023-05-02T04:48:13.755Z,44.87
2023-05-02T04:49:13.761Z,44.85
2023-05-02T04:50:13.790Z,44.84
2023-05-02T04:51:16.301Z,44.83
2023-05-02T04:52:13.822Z,44.86
2023-05-02T04:53:13.813Z,44.87
2023-05-02T04:54:13.820Z,44.89
2023-05-02T04:55:13.814Z,44.88
2023-05-02T04:56:13.816Z,44.88
2023-05-02T04:57:13.807Z,44.90
2023-05-02T04:58:13.813Z,44.90
2023-05-02T04:59:13.811Z,44.93
2023-05-02T05:00:13.801Z,44.89
2023-05-02T05:01:13.829Z,44.87
2023-05-02T05:02:13.821Z,44.89
2023-05-02T05:03:13.866Z,44.88
2023-05-02T05:04:14.082Z,44.91
2023-05-02T05:05:13.815Z,44.92
2023-05-02T05:06:13.814Z,44.92
2023-05-02T05:07:13.798Z,44.94
2023-05-02T05:08:13.783Z,44.90
2023-05-02T05:09:13.778Z,44.92
2023-05-02T05:10:13.781Z,44.92
2023-05-02T05:11:13.786Z,44.94
2023-05-02T05:12:13.776Z,44.95
2023-05-02T05:13:13.777Z,44.94
2023-05-02T05:14:13.773Z,44.93
2023-05-02T05:15:13.765Z,44.94
2023-05-02T05:16:13.815Z,44.96
2023-05-02T05:17:13.768Z,44.94
2023-05-02T05:18:13.771Z,44.75
2023-05-02T05:19:13.776Z,45.22
2023-05-02T05:20:13.797Z,45.66
2023-05-02T05:21:13.805Z,46.23
2023-05-02T05:22:13.839Z,46.81
2023-05-02T05:23:13.855Z,47.32
2023-05-02T05:24:13.906Z,47.46
2023-05-02T05:25:13.946Z,47.67
2023-05-02T05:26:13.954Z,47.68
2023-05-02T05:27:13.987Z,48.20
2023-05-02T05:28:14.028Z,48.41
2023-05-02T05:29:14.089Z,48.65
2023-05-02T05:30:14.094Z,48.53
2023-05-02T05:31:16.609Z,48.76
2023-05-02T05:32:20.640Z,49.22
2023-05-02T05:33:14.315Z,49.40
2023-05-02T05:34:14.291Z,49.33
2023-05-02T05:35:14.281Z,49.12
2023-05-02T05:36:14.328Z,50.08
2023-05-02T05:37:15.565Z,50.09
2023-05-02T05:38:14.375Z,49.70
2023-05-02T05:39:14.411Z,49.60
2023-05-02T05:40:14.442Z,49.63
2023-05-02T05:41:15.148Z,49.64
2023-05-02T05:42:14.451Z,49.65
2023-05-02T05:43:15.451Z,49.62
2023-05-02T05:44:14.464Z,49.74
2023-05-02T05:45:15.164Z,49.86
2023-05-02T05:46:14.453Z,50.00
2023-05-02T05:47:17.196Z,50.07
2023-05-02T05:48:14.544Z,50.17
2023-05-02T05:49:14.491Z,50.17
2023-05-02T05:50:14.508Z,50.55
2023-05-02T05:51:17.162Z,50.39
2023-05-02T05:52:14.532Z,50.65
2023-05-02T05:53:15.143Z,50.67
2023-05-02T05:54:14.566Z,50.78
2023-05-02T05:55:14.533Z,51.01
2023-05-02T05:56:14.542Z,50.90
2023-05-02T05:57:14.539Z,51.16
2023-05-02T05:58:14.538Z,51.39
2023-05-02T05:59:15.549Z,51.44
2023-05-02T06:00:14.668Z,51.70
2023-05-02T06:01:14.551Z,51.57
2023-05-02T06:02:14.573Z,51.88
2023-05-02T06:03:14.695Z,51.94
2023-05-02T06:04:14.657Z,51.99
2023-05-02T06:05:14.621Z,52.22
2023-05-02T06:06:14.623Z,52.22
2023-05-02T06:07:14.560Z,52.43
2023-05-02T06:08:14.559Z,52.35
2023-05-02T06:09:16.220Z,52.77
2023-05-02T06:10:14.572Z,52.72
2023-05-02T06:11:14.572Z,52.87
2023-05-02T06:12:16.165Z,52.95
2023-05-02T06:13:14.613Z,53.15
2023-05-02T06:14:14.668Z,53.04
2023-05-02T06:15:14.732Z,53.15
2023-05-02T06:16:14.823Z,53.33
2023-05-02T06:17:15.655Z,53.43
2023-05-02T06:18:14.935Z,53.57
2023-05-02T06:19:14.953Z,53.66
2023-05-02T06:20:16.569Z,53.71
2023-05-02T06:21:15.059Z,53.88
2023-05-02T06:22:15.111Z,54.64
2023-05-02T06:23:15.155Z,54.08
2023-05-02T06:24:15.142Z,54.00
2023-05-02T06:25:15.158Z,49.67
2023-05-02T06:26:15.162Z,48.57
2023-05-02T06:27:15.161Z,48.56
2023-05-02T06:28:15.192Z,48.38
2023-05-02T06:29:15.218Z,48.78
2023-05-02T06:30:15.254Z,49.25
2023-05-02T06:31:15.308Z,48.60
2023-05-02T06:32:15.317Z,48.66
2023-05-02T06:33:15.487Z,48.74
2023-05-02T06:34:17.193Z,48.02
2023-05-02T06:35:15.447Z,48.28
2023-05-02T06:36:15.598Z,47.90
2023-05-02T06:37:15.548Z,48.08
2023-05-02T06:38:17.582Z,48.36
2023-05-02T06:39:15.634Z,48.54
2023-05-02T06:40:15.672Z,48.58
2023-05-02T06:41:17.970Z,48.34
2023-05-02T06:42:15.884Z,48.42
2023-05-02T06:43:15.975Z,48.25
2023-05-02T06:44:16.067Z,48.25
2023-05-02T06:45:16.156Z,48.30
2023-05-02T06:46:16.270Z,48.30
2023-05-02T06:47:16.417Z,48.71
2023-05-02T06:48:16.525Z,48.95
2023-05-02T06:49:16.602Z,49.05
2023-05-02T06:50:16.705Z,49.02
2023-05-02T06:51:16.803Z,48.90
2023-05-02T06:52:16.916Z,48.89
2023-05-02T06:53:17.017Z,49.07
2023-05-02T06:54:17.116Z,49.36
2023-05-02T06:55:17.234Z,49.09
2023-05-02T06:56:22.178Z,49.20
2023-05-02T06:57:18.180Z,49.44
2023-05-02T06:58:17.402Z,49.35
2023-05-02T06:59:17.436Z,49.43
2023-05-02T07:00:17.490Z,48.90
2023-05-02T07:01:17.599Z,49.02
2023-05-02T07:02:17.610Z,48.94
2023-05-02T07:03:17.641Z,48.71
2023-05-02T07:04:17.816Z,48.40
2023-05-02T07:05:17.762Z,48.47
2023-05-02T07:06:17.955Z,48.46
2023-05-02T07:07:17.968Z,48.57
2023-05-02T07:08:18.066Z,48.53
2023-05-02T07:09:18.167Z,48.68
2023-05-02T07:10:18.272Z,48.93
2023-05-02T07:11:18.413Z,49.24
2023-05-02T07:12:18.496Z,49.21
2023-05-02T07:13:18.645Z,49.38
2023-05-02T07:14:18.716Z,49.62
2023-05-02T07:15:18.824Z,49.68
2023-05-02T07:16:18.970Z,49.61
2023-05-02T07:17:19.077Z,49.58
2023-05-02T07:18:19.305Z,49.45
2023-05-02T07:19:19.302Z,49.30
2023-05-02T07:20:19.323Z,49.13
2023-05-02T07:21:19.387Z,48.77
2023-05-02T07:22:19.430Z,48.79
2023-05-02T07:23:19.429Z,48.63
2023-05-02T07:24:20.166Z,48.57
2023-05-02T07:25:20.281Z,48.64
2023-05-02T07:26:19.551Z,48.31
2023-05-02T07:27:19.569Z,48.06
2023-05-02T07:28:19.618Z,48.26
2023-05-02T07:29:19.653Z,48.16
2023-05-02T07:30:19.680Z,47.93
2023-05-02T07:31:19.749Z,48.22
2023-05-02T07:32:19.888Z,48.55
2023-05-02T07:33:20.858Z,48.62
2023-05-02T07:34:19.883Z,48.94
2023-05-02T07:35:20.181Z,48.87
2023-05-02T07:36:19.958Z,48.81
2023-05-02T07:37:19.988Z,48.63
2023-05-02T07:38:20.017Z,48.64
2023-05-02T07:39:20.051Z,48.61
2023-05-02T07:40:20.113Z,48.54
2023-05-02T07:41:20.111Z,48.57
2023-05-02T07:42:20.145Z,48.65
2023-05-02T07:43:20.151Z,48.76
2023-05-02T07:44:20.171Z,48.90
2023-05-02T07:45:20.200Z,48.88
2023-05-02T07:46:20.277Z,49.13
2023-05-02T07:47:20.336Z,49.25
2023-05-02T07:48:22.212Z,49.25
2023-05-02T07:49:20.491Z,49.41
2023-05-02T07:50:20.520Z,49.53
2023-05-02T07:51:20.552Z,49.67
2023-05-02T07:52:20.625Z,49.71
2023-05-02T07:53:20.651Z,49.91
2023-05-02T07:54:20.776Z,49.95
2023-05-02T07:55:20.718Z,50.10
2023-05-02T07:56:20.757Z,49.97
2023-05-02T07:57:27.693Z,47.74
2023-05-02T07:58:20.837Z,48.22
2023-05-02T07:59:20.854Z,47.94
2023-05-02T08:00:20.897Z,48.15
2023-05-02T08:01:20.911Z,48.48
2023-05-02T08:02:21.053Z,48.75
2023-05-02T08:03:21.198Z,48.09
2023-05-02T08:04:21.147Z,48.22
2023-05-02T08:05:21.051Z,48.34
2023-05-02T08:06:21.127Z,48.25
2023-05-02T08:07:21.133Z,48.03
2023-05-02T08:08:21.187Z,48.21
2023-05-02T08:09:22.193Z,49.10
2023-05-02T08:10:21.417Z,48.34
2023-05-02T08:11:22.537Z,49.55
2023-05-02T08:12:21.346Z,49.16
2023-05-02T08:13:21.372Z,48.16
2023-05-02T08:14:21.428Z,49.06
2023-05-02T08:15:21.465Z,49.81
2023-05-02T08:16:21.550Z,48.18
2023-05-02T08:17:22.568Z,49.14
2023-05-02T08:18:21.573Z,49.67
2023-05-02T08:19:21.632Z,49.53
2023-05-02T08:20:21.651Z,49.19
2023-05-02T08:21:22.216Z,49.10
2023-05-02T08:22:21.702Z,48.99
2023-05-02T08:23:22.205Z,49.17
2023-05-02T08:24:21.762Z,49.36
2023-05-02T08:25:21.876Z,49.13
2023-05-02T08:26:21.839Z,49.10
2023-05-02T08:27:21.840Z,49.30
2023-05-02T08:28:21.856Z,49.32
2023-05-02T08:29:21.865Z,49.50
2023-05-02T08:30:22.793Z,49.61
2023-05-02T08:31:21.951Z,49.71
2023-05-02T08:32:21.923Z,49.77
2023-05-02T08:33:21.989Z,49.85
2023-05-02T08:34:21.964Z,50.04
2023-05-02T08:35:21.993Z,50.48
2023-05-02T08:36:21.988Z,50.30
2023-05-02T08:37:23.708Z,50.36
2023-05-02T08:38:22.015Z,50.47
2023-05-02T08:39:22.029Z,50.68
2023-05-02T08:40:30.435Z,50.69
2023-05-02T08:41:23.058Z,50.79
2023-05-02T08:42:22.068Z,50.95
2023-05-02T08:43:22.088Z,51.07
2023-05-02T08:44:22.109Z,51.23
2023-05-02T08:45:22.109Z,51.42
2023-05-02T08:46:22.131Z,51.36
2023-05-02T08:47:22.294Z,51.56
2023-05-02T08:48:22.159Z,51.66
2023-05-02T08:49:22.156Z,51.69
2023-05-02T08:50:22.248Z,51.82
2023-05-02T08:51:22.168Z,51.97
2023-05-02T08:52:22.339Z,52.16
2023-05-02T08:53:22.196Z,52.24
2023-05-02T08:54:22.203Z,52.32
2023-05-02T08:55:22.212Z,52.41
2023-05-02T08:56:22.259Z,52.39
2023-05-02T08:57:22.229Z,52.56
2023-05-02T08:58:22.230Z,52.69
2023-05-02T08:59:22.261Z,52.72
2023-05-02T09:00:22.318Z,52.87
2023-05-02T09:01:23.330Z,52.97
2023-05-02T09:02:22.384Z,53.07
2023-05-02T09:03:23.752Z,53.21
2023-05-02T09:04:22.509Z,53.20
2023-05-02T09:05:22.586Z,53.38
2023-05-02T09:06:22.679Z,53.45
2023-05-02T09:07:22.666Z,53.50
2023-05-02T09:08:22.752Z,53.72
2023-05-02T09:09:22.803Z,53.69
2023-05-02T09:10:22.868Z,53.74
2023-05-02T09:11:22.935Z,53.90
2023-05-02T09:12:22.939Z,53.99
2023-05-02T09:13:25.741Z,54.05
2023-05-02T09:14:23.022Z,54.21
2023-05-02T09:15:23.014Z,54.28
2023-05-02T09:16:23.205Z,54.69
2023-05-02T09:17:23.851Z,54.43
2023-05-02T09:18:23.006Z,54.40
2023-05-02T09:19:23.006Z,54.34
2023-05-02T09:20:23.014Z,54.28
2023-05-02T09:21:23.031Z,54.49
2023-05-02T09:22:23.001Z,54.53
2023-05-02T09:23:23.014Z,54.69
2023-05-02T09:24:23.008Z,54.67
2023-05-02T09:25:23.076Z,54.57
2023-05-02T09:26:23.127Z,54.70
2023-05-02T09:27:23.176Z,54.80
2023-05-02T09:28:23.243Z,54.86
2023-05-02T09:29:23.300Z,54.98
2023-05-02T09:30:23.352Z,55.08
2023-05-02T09:32:23.520Z,55.25
2023-05-02T09:33:23.441Z,55.41
2023-05-02T09:34:24.212Z,55.38
2023-05-02T09:35:23.406Z,55.55
2023-05-02T09:36:23.401Z,55.68
2023-05-02T09:37:23.388Z,55.82
2023-05-02T09:38:23.417Z,55.79
2023-05-02T09:39:25.436Z,55.88
2023-05-02T09:40:23.569Z,55.90
2023-05-02T09:41:23.565Z,55.97
2023-05-02T09:42:23.559Z,56.08
2023-05-02T09:43:23.539Z,56.28
2023-05-02T09:44:23.549Z,56.22
2023-05-02T09:45:24.211Z,56.40
2023-05-02T09:46:23.584Z,56.55
2023-05-02T09:47:23.735Z,56.63
2023-05-02T09:48:23.546Z,56.70
2023-05-02T09:49:23.530Z,56.82
2023-05-02T09:50:23.542Z,56.93
2023-05-02T09:51:24.213Z,56.93
2023-05-02T09:52:23.545Z,57.02
2023-05-02T09:53:23.530Z,57.09
2023-05-02T09:54:23.534Z,57.19
2023-05-02T09:55:23.519Z,57.21
2023-05-02T09:56:26.064Z,57.44
2023-05-02T09:57:23.734Z,57.56
2023-05-02T09:58:23.774Z,57.66
2023-05-02T09:59:30.796Z,57.69
2023-05-02T10:00:24.732Z,57.92
2023-05-02T10:01:24.841Z,57.75
2023-05-02T10:02:23.856Z,57.78
2023-05-02T10:03:23.820Z,57.84
2023-05-02T10:04:24.069Z,57.98
2023-05-02T10:05:23.823Z,58.06
2023-05-02T10:06:23.844Z,57.90
2023-05-02T10:07:23.818Z,57.83
2023-05-02T10:08:23.831Z,58.15
2023-05-02T10:09:23.829Z,58.17
2023-05-02T10:10:23.908Z,57.62
2023-05-02T10:11:23.849Z,57.44
2023-05-02T10:12:23.835Z,57.30
2023-05-02T10:13:23.831Z,57.25
2023-05-02T10:14:23.839Z,57.12
2023-05-02T10:15:23.856Z,57.05
2023-05-02T10:16:23.970Z,57.02
2023-05-02T10:17:24.682Z,56.93
2023-05-02T10:18:24.097Z,56.89
2023-05-02T10:19:24.148Z,56.85
2023-05-02T10:20:24.146Z,56.81
2023-05-02T10:21:24.204Z,56.73
2023-05-02T10:22:24.273Z,56.71
2023-05-02T10:23:24.334Z,56.62
2023-05-02T10:24:24.396Z,56.60
2023-05-02T10:25:24.449Z,56.57
2023-05-02T10:26:24.516Z,56.52
2023-05-02T10:27:24.591Z,56.49
2023-05-02T10:28:24.635Z,56.43
2023-05-02T10:29:24.724Z,56.36
2023-05-02T10:30:24.739Z,56.39
2023-05-02T10:31:24.859Z,56.35
2023-05-02T10:32:24.992Z,56.26
2023-05-02T10:33:24.919Z,56.27
2023-05-02T10:34:24.987Z,56.26
2023-05-02T10:35:25.061Z,56.21
2023-05-02T10:36:25.114Z,56.18
2023-05-02T10:37:25.172Z,56.20
2023-05-02T10:38:25.198Z,56.22
2023-05-02T10:39:25.320Z,56.18
2023-05-02T10:40:25.300Z,56.13
2023-05-02T10:41:25.325Z,56.15
2023-05-02T10:42:25.356Z,56.16
2023-05-02T10:43:25.397Z,56.10
2023-05-02T10:44:26.718Z,56.14
2023-05-02T10:45:25.387Z,56.03
2023-05-02T10:46:25.464Z,55.99
2023-05-02T10:47:25.501Z,55.94
2023-05-02T10:48:25.444Z,55.88
2023-05-02T10:49:25.511Z,55.93
2023-05-02T10:50:26.469Z,55.85
2023-05-02T10:51:25.557Z,55.85
2023-05-02T10:52:25.565Z,55.86
2023-05-02T10:53:25.600Z,55.80
2023-05-02T10:54:25.602Z,55.83
2023-05-02T10:55:25.614Z,55.75
2023-05-02T10:56:27.727Z,55.79
2023-05-02T10:57:25.697Z,55.77
2023-05-02T10:58:25.663Z,55.76
2023-05-02T10:59:25.724Z,55.71
2023-05-02T11:00:25.679Z,55.70
2023-05-02T11:01:25.934Z,55.78
2023-05-02T11:02:25.812Z,55.69
2023-05-02T11:03:25.806Z,55.58
2023-05-02T11:04:25.717Z,55.58
2023-05-02T11:05:25.706Z,55.43
2023-05-02T11:06:25.752Z,55.50
2023-05-02T11:07:25.756Z,55.45
2023-05-02T11:08:25.835Z,55.37
2023-05-02T11:09:25.728Z,55.32
2023-05-02T11:10:25.722Z,55.21
2023-05-02T11:11:25.719Z,55.19
2023-05-02T11:12:25.741Z,55.14
2023-05-02T11:13:25.731Z,55.10
2023-05-02T11:14:25.743Z,54.97
2023-05-02T11:15:25.738Z,54.98
2023-05-02T11:16:25.811Z,54.95
2023-05-02T11:17:26.791Z,54.86
2023-05-02T11:18:25.751Z,54.84
2023-05-02T11:19:25.745Z,54.77
2023-05-02T11:20:25.749Z,54.69
2023-05-02T11:21:25.756Z,54.68
2023-05-02T11:22:25.747Z,54.65
2023-05-02T11:23:25.834Z,54.59
2023-05-02T11:24:25.751Z,54.60
2023-05-02T11:25:25.745Z,54.51
2023-05-02T11:26:25.744Z,54.50
2023-05-02T11:27:25.738Z,54.50
2023-05-02T11:28:25.765Z,54.43
2023-05-02T11:29:25.734Z,54.42
2023-05-02T11:30:25.734Z,54.39
2023-05-02T11:31:25.812Z,54.34
2023-05-02T11:32:25.788Z,54.34
2023-05-02T11:33:25.734Z,54.32
2023-05-02T11:34:25.741Z,54.30
2023-05-02T11:35:25.746Z,54.26
2023-05-02T11:36:25.747Z,54.30
2023-05-02T11:37:25.761Z,54.28
2023-05-02T11:38:25.809Z,54.28
2023-05-02T11:39:25.848Z,54.24
2023-05-02T11:40:25.884Z,54.19
2023-05-02T11:41:25.941Z,54.15
2023-05-02T11:42:25.965Z,54.17
2023-05-02T11:43:26.011Z,54.19
2023-05-02T11:44:26.009Z,54.14
2023-05-02T11:45:26.083Z,54.15
2023-05-02T11:46:26.130Z,54.16
2023-05-02T11:47:26.148Z,54.09
2023-05-02T11:48:26.198Z,54.10
2023-05-02T11:49:26.210Z,54.13
2023-05-02T11:50:26.225Z,54.14
2023-05-02T11:51:26.242Z,54.08
2023-05-02T11:52:26.258Z,54.08
2023-05-02T11:53:26.289Z,54.08
2023-05-02T11:54:26.263Z,54.03
2023-05-02T11:55:26.278Z,54.03
2023-05-02T11:56:26.281Z,54.01
2023-05-02T11:57:26.278Z,53.99
2023-05-02T11:58:26.317Z,54.00
2023-05-02T11:59:26.297Z,53.96
2023-05-02T12:00:26.306Z,53.95
2023-05-02T12:01:26.333Z,53.95
2023-05-02T12:02:26.399Z,53.94
2023-05-02T12:03:26.442Z,53.90
2023-05-02T12:04:26.439Z,53.88
2023-05-02T12:05:26.428Z,53.86
2023-05-02T12:06:26.443Z,53.83
2023-05-02T12:07:26.396Z,53.79
2023-05-02T12:08:26.460Z,53.81
2023-05-02T12:09:26.440Z,53.80
2023-05-02T12:10:26.446Z,53.76
2023-05-02T12:11:26.471Z,53.74
2023-05-02T12:12:26.467Z,53.71
2023-05-02T12:13:26.481Z,53.71
2023-05-02T12:14:26.492Z,53.69
2023-05-02T12:15:26.515Z,53.71
2023-05-02T12:16:26.557Z,53.72
2023-05-02T12:17:26.603Z,53.65
2023-05-02T12:18:26.570Z,53.69
2023-05-02T12:19:26.584Z,53.64
2023-05-02T12:20:26.591Z,53.60
2023-05-02T12:21:26.612Z,53.63
2023-05-02T12:22:26.797Z,53.57
2023-05-02T12:23:26.642Z,53.52
2023-05-02T12:24:26.630Z,53.56
2023-05-02T12:25:26.648Z,53.52
2023-05-02T12:26:26.675Z,53.51
2023-05-02T12:27:26.676Z,53.50
2023-05-02T12:28:26.728Z,53.48
2023-05-02T12:29:26.707Z,53.46
2023-05-02T12:30:26.729Z,53.46
2023-05-02T12:31:26.756Z,53.43
2023-05-02T12:32:27.662Z,53.45
2023-05-02T12:33:26.739Z,53.40
2023-05-02T12:34:26.759Z,53.41
2023-05-02T12:35:26.765Z,53.38
2023-05-02T12:36:26.792Z,53.32
2023-05-02T12:37:26.800Z,53.30
2023-05-02T12:38:26.818Z,53.29
2023-05-02T12:39:26.819Z,53.25
2023-05-02T12:40:26.848Z,53.28
2023-05-02T12:41:26.853Z,53.21
2023-05-02T12:42:26.880Z,53.16
2023-05-02T12:43:26.881Z,53.15
2023-05-02T12:44:26.903Z,53.13
2023-05-02T12:45:26.923Z,53.11
2023-05-02T12:46:26.956Z,53.06
2023-05-02T12:47:27.055Z,53.02
2023-05-02T12:48:26.971Z,53.02
2023-05-02T12:49:26.970Z,52.93
2023-05-02T12:50:27.007Z,52.91
2023-05-02T12:51:27.001Z,52.88
2023-05-02T12:52:27.018Z,52.86
2023-05-02T12:53:27.022Z,52.77